sensor_id;sensor_type;location;lat;lon;timestamp;P1;durP1;ratioP1;P2;durP2;ratioP2
60233;SDS011;49514;43.538;-5.708;2024-01-30T10:15:42;30.02;;;9.70;;
60233;SDS011;49514;43.538;-5.708;2024-01-30T10:18:09;39.03;;;9.60;;
60233;SDS011;49514;43.538;-5.708;2024-01-30T10:20:36;32.75;;;9.85;;
60233;SDS011;49514;43.538;-5.708;2024-01-30T10:23:03;30.75;;;8.82;;
60233;SDS011;49514;43.538;-5.708;2024-01-30T10:25:32;26.50;;;8.88;;
60233;SDS011;49514;43.538;-5.708;2024-01-30T10:27:59;28.83;;;8.48;;
60233;SDS011;49514;43.538;-5.708;2024-01-30T10:30:26;28.48;;;10.82;;
60233;SDS011;49514;43.538;-5.708;2024-01-30T10:32:54;30.73;;;10.45;;
60233;SDS011;49514;43.538;-5.708;2024-01-30T10:35:20;27.98;;;10.73;;
60233;SDS011;49514;43.538;-5.708;2024-01-30T10:37:47;29.52;;;10.13;;
60233;SDS011;49514;43.538;-5.708;2024-01-30T10:40:14;27.95;;;10.10;;
60233;SDS011;49514;43.538;-5.708;2024-01-30T10:42:43;30.83;;;10.00;;
60233;SDS011;49514;43.538;-5.708;2024-01-30T10:45:14;24.65;;;8.82;;
60233;SDS011;49514;43.538;-5.708;2024-01-30T10:47:50;24.50;;;8.60;;
60233;SDS011;49514;43.538;-5.708;2024-01-30T10:50:22;31.95;;;8.20;;
60233;SDS011;49514;43.538;-5.708;2024-01-30T10:52:52;27.33;;;8.10;;
60233;SDS011;49514;43.538;-5.708;2024-01-30T10:55:20;31.75;;;8.27;;
60233;SDS011;49514;43.538;-5.708;2024-01-30T10:57:49;27.15;;;8.80;;
60233;SDS011;49514;43.538;-5.708;2024-01-30T11:00:16;33.13;;;9.63;;
60233;SDS011;49514;43.538;-5.708;2024-01-30T11:02:48;28.65;;;9.13;;
60233;SDS011;49514;43.538;-5.708;2024-01-30T11:05:22;27.30;;;9.48;;
60233;SDS011;49514;43.538;-5.708;2024-01-30T11:07:53;33.15;;;9.85;;
60233;SDS011;49514;43.538;-5.708;2024-01-30T11:10:19;30.65;;;9.05;;
60233;SDS011;49514;43.538;-5.708;2024-01-30T11:12:46;30.92;;;9.77;;
60233;SDS011;49514;43.538;-5.708;2024-01-30T11:15:14;29.27;;;9.32;;
60233;SDS011;49514;43.538;-5.708;2024-01-30T11:35:04;29.50;;;7.72;;
60233;SDS011;49514;43.538;-5.708;2024-01-30T11:42:29;20.17;;;7.40;;
60233;SDS011;49514;43.538;-5.708;2024-01-30T11:49:49;27.02;;;7.80;;
60233;SDS011;49514;43.538;-5.708;2024-01-30T11:52:16;29.35;;;8.30;;
60233;SDS011;49514;43.538;-5.708;2024-01-30T11:54:43;26.85;;;8.05;;
60233;SDS011;49514;43.538;-5.708;2024-01-30T11:57:10;36.03;;;8.13;;
60233;SDS011;49514;43.538;-5.708;2024-01-30T11:59:37;30.55;;;8.68;;
60233;SDS011;49514;43.538;-5.708;2024-01-30T12:02:03;32.42;;;8.25;;
60233;SDS011;49514;43.538;-5.708;2024-01-30T12:04:30;31.73;;;7.93;;
60233;SDS011;49514;43.538;-5.708;2024-01-30T12:06:57;26.23;;;6.85;;
60233;SDS011;49514;43.538;-5.708;2024-01-30T12:09:24;27.58;;;7.18;;
60233;SDS011;49514;43.538;-5.708;2024-01-30T12:11:51;27.35;;;7.13;;
60233;SDS011;49514;43.538;-5.708;2024-01-30T12:14:17;31.95;;;7.20;;
60233;SDS011;49514;43.538;-5.708;2024-01-30T12:16:48;26.40;;;6.78;;
60233;SDS011;49514;43.538;-5.708;2024-01-30T12:19:23;26.20;;;6.63;;
60233;SDS011;49514;43.538;-5.708;2024-01-30T12:21:54;20.33;;;5.70;;
60233;SDS011;49514;43.538;-5.708;2024-01-30T12:24:22;19.45;;;6.07;;
60233;SDS011;49514;43.538;-5.708;2024-01-30T12:26:49;26.02;;;6.15;;
60233;SDS011;49514;43.538;-5.708;2024-01-30T12:29:16;23.17;;;5.25;;
60233;SDS011;49514;43.538;-5.708;2024-01-30T12:31:43;24.38;;;5.75;;
60233;SDS011;49514;43.538;-5.708;2024-01-30T12:34:10;27.52;;;6.28;;
60233;SDS011;49514;43.538;-5.708;2024-01-30T12:36:41;19.98;;;6.10;;
60233;SDS011;49514;43.538;-5.708;2024-01-30T12:39:11;19.02;;;5.60;;
60233;SDS011;49514;43.538;-5.708;2024-01-30T12:41:40;23.60;;;5.35;;
60233;SDS011;49514;43.538;-5.708;2024-01-30T12:44:07;24.83;;;5.88;;
60233;SDS011;49514;43.538;-5.708;2024-01-30T12:46:34;20.88;;;5.45;;
60233;SDS011;49514;43.538;-5.708;2024-01-30T12:49:01;22.02;;;5.40;;
60233;SDS011;49514;43.538;-5.708;2024-01-30T12:51:28;21.80;;;5.30;;
60233;SDS011;49514;43.538;-5.708;2024-01-30T12:53:55;16.00;;;4.72;;
60233;SDS011;49514;43.538;-5.708;2024-01-30T12:56:21;20.92;;;5.57;;
60233;SDS011;49514;43.538;-5.708;2024-01-30T14:21:51;13.98;;;3.92;;
60233;SDS011;49514;43.538;-5.708;2024-01-30T14:24:18;14.90;;;3.88;;
60233;SDS011;49514;43.538;-5.708;2024-01-30T14:26:45;17.33;;;4.47;;
60233;SDS011;49514;43.538;-5.708;2024-01-30T14:29:12;13.80;;;4.05;;
60233;SDS011;49514;43.538;-5.708;2024-01-30T14:31:39;14.40;;;3.80;;
60233;SDS011;49514;43.538;-5.708;2024-01-30T14:34:06;18.48;;;3.40;;
60233;SDS011;49514;43.538;-5.708;2024-01-30T14:36:34;17.63;;;4.32;;
60233;SDS011;49514;43.538;-5.708;2024-01-30T14:39:01;16.77;;;3.33;;
60233;SDS011;49514;43.538;-5.708;2024-01-30T14:41:29;12.73;;;3.42;;
60233;SDS011;49514;43.538;-5.708;2024-01-30T14:43:56;19.88;;;4.30;;
60233;SDS011;49514;43.538;-5.708;2024-01-30T14:46:24;14.55;;;3.28;;
60233;SDS011;49514;43.538;-5.708;2024-01-30T14:48:52;15.23;;;3.78;;
60233;SDS011;49514;43.538;-5.708;2024-01-30T14:51:20;13.82;;;3.58;;
60233;SDS011;49514;43.538;-5.708;2024-01-30T14:53:47;12.98;;;3.88;;
60233;SDS011;49514;43.538;-5.708;2024-01-30T14:56:13;14.68;;;3.70;;
60233;SDS011;49514;43.538;-5.708;2024-01-30T14:58:40;13.10;;;3.95;;
60233;SDS011;49514;43.538;-5.708;2024-01-30T15:01:07;12.55;;;3.50;;
60233;SDS011;49514;43.538;-5.708;2024-01-30T15:03:34;12.32;;;3.25;;
60233;SDS011;49514;43.538;-5.708;2024-01-30T15:06:01;14.98;;;3.60;;
60233;SDS011;49514;43.538;-5.708;2024-01-30T15:08:30;10.63;;;3.00;;
60233;SDS011;49514;43.538;-5.708;2024-01-30T15:10:58;16.90;;;3.72;;
60233;SDS011;49514;43.538;-5.708;2024-01-30T15:13:25;15.43;;;3.30;;
60233;SDS011;49514;43.538;-5.708;2024-01-30T15:15:51;14.05;;;3.30;;
60233;SDS011;49514;43.538;-5.708;2024-01-30T15:18:18;17.77;;;3.00;;
60233;SDS011;49514;43.538;-5.708;2024-01-30T15:20:45;18.15;;;4.18;;
60233;SDS011;49514;43.538;-5.708;2024-01-30T15:23:11;11.45;;;3.40;;
60233;SDS011;49514;43.538;-5.708;2024-01-30T15:25:38;10.32;;;3.45;;
60233;SDS011;49514;43.538;-5.708;2024-01-30T15:28:05;17.05;;;3.95;;
60233;SDS011;49514;43.538;-5.708;2024-01-30T15:30:32;15.70;;;3.50;;
60233;SDS011;49514;43.538;-5.708;2024-01-30T15:32:58;9.75;;;2.97;;
60233;SDS011;49514;43.538;-5.708;2024-01-30T15:35:25;16.63;;;3.80;;
60233;SDS011;49514;43.538;-5.708;2024-01-30T15:37:52;19.25;;;4.15;;
60233;SDS011;49514;43.538;-5.708;2024-01-30T15:40:18;14.88;;;3.67;;
60233;SDS011;49514;43.538;-5.708;2024-01-30T15:42:46;11.23;;;3.10;;
60233;SDS011;49514;43.538;-5.708;2024-01-30T15:45:13;13.50;;;3.15;;
60233;SDS011;49514;43.538;-5.708;2024-01-30T15:47:40;9.35;;;2.95;;
60233;SDS011;49514;43.538;-5.708;2024-01-30T15:50:08;13.68;;;3.40;;
60233;SDS011;49514;43.538;-5.708;2024-01-30T15:52:37;9.88;;;2.95;;
60233;SDS011;49514;43.538;-5.708;2024-01-30T15:55:04;12.15;;;3.35;;
60233;SDS011;49514;43.538;-5.708;2024-01-30T15:57:31;16.52;;;3.45;;
60233;SDS011;49514;43.538;-5.708;2024-01-30T15:59:58;18.05;;;3.80;;
60233;SDS011;49514;43.538;-5.708;2024-01-30T16:02:26;11.45;;;3.13;;
60233;SDS011;49514;43.538;-5.708;2024-01-30T16:04:53;10.65;;;2.92;;
60233;SDS011;49514;43.538;-5.708;2024-01-30T16:07:20;16.73;;;3.67;;
60233;SDS011;49514;43.538;-5.708;2024-01-30T16:09:47;11.77;;;3.45;;
60233;SDS011;49514;43.538;-5.708;2024-01-30T16:12:38;13.75;;;3.90;;
60233;SDS011;49514;43.538;-5.708;2024-01-30T16:15:33;11.30;;;3.80;;
60233;SDS011;49514;43.538;-5.708;2024-01-30T16:18:25;11.80;;;3.80;;
60233;SDS011;49514;43.538;-5.708;2024-01-30T16:21:17;12.73;;;3.72;;
60233;SDS011;49514;43.538;-5.708;2024-01-30T16:24:09;15.38;;;3.63;;
60233;SDS011;49514;43.538;-5.708;2024-01-30T16:27:01;21.98;;;4.25;;
60233;SDS011;49514;43.538;-5.708;2024-01-30T16:29:52;17.58;;;4.00;;
60233;SDS011;49514;43.538;-5.708;2024-01-30T16:32:45;16.55;;;3.85;;
60233;SDS011;49514;43.538;-5.708;2024-01-30T16:35:36;18.20;;;3.88;;
60233;SDS011;49514;43.538;-5.708;2024-01-30T16:38:27;16.35;;;4.22;;
60233;SDS011;49514;43.538;-5.708;2024-01-30T16:41:21;20.00;;;4.45;;
60233;SDS011;49514;43.538;-5.708;2024-01-30T16:44:12;22.67;;;4.43;;
60233;SDS011;49514;43.538;-5.708;2024-01-30T16:47:05;22.52;;;4.90;;
60233;SDS011;49514;43.538;-5.708;2024-01-30T16:49:57;23.23;;;5.70;;
60233;SDS011;49514;43.538;-5.708;2024-01-30T16:52:48;17.83;;;4.93;;
60233;SDS011;49514;43.538;-5.708;2024-01-30T16:55:39;27.73;;;5.15;;
60233;SDS011;49514;43.538;-5.708;2024-01-30T16:58:31;16.70;;;4.53;;
60233;SDS011;49514;43.538;-5.708;2024-01-30T17:01:22;22.55;;;5.55;;
60233;SDS011;49514;43.538;-5.708;2024-01-30T17:04:16;30.23;;;5.80;;
60233;SDS011;49514;43.538;-5.708;2024-01-30T17:07:12;28.73;;;5.55;;
60233;SDS011;49514;43.538;-5.708;2024-01-30T17:10:04;21.35;;;5.93;;
60233;SDS011;49514;43.538;-5.708;2024-01-30T17:12:56;23.88;;;5.85;;
